Terminal Aerodrome Forecast
Issued by NWS

Home | Current Version | Previous Version | Text Only | Print | Product List | Glossary Off
Versions: 1 2 3 4 5 6 7 8 9 10 11 12 13 14 15

000
FTUS45 KGGW 220327 AAA
TAFOLF
TAF AMD
KOLF 220327Z 2203/2224 VRB02KT 5SM BR OVC003
     FM220600 VRB04KT 4SM BR BKN010
     FM221000 VRB04KT 2SM BR BKN005
     FM221600 26009KT P6SM BKN010=

USA.gov is the U.S. government's official web portal to all federal, state and local government web resources and services.